首页
METAR-TAF:

METAR-TAF

机场 :

莫比尔, 阿拉巴马州, 美国

纬度: 30-41-18N, 经度: 088-14-44W, 海拔: 66米

当前天气观测

该预报发布于25分钟前的00:17 UTC
风速7节,风向西北
温度 24°C
湿度 89%
气压 1012 hPa
能見度: 11.3公里
多云层高于2500英尺, 积雨云.
多云层高于7500英尺
阴天层高于9000英尺
附近有雷暴

METAR: KMOB 160017Z 31007KT 7SM VCTS BKN025CB BKN075 OVC090 24/22 A2988 RMK AO2 LTG DSNT NW-E TSB2359E14 FRQ LTGICCG NW-NE TS VC NW-NE MOV E CB DSNT NW-E T02440222

时间: 19:42 (00:42 UTC)

预报

该预报发布于1小时和17分钟前的23:25 UTC
预报有效从16日的 00点(UTC)到 16日的 24点(UTC)
风速5节,风向西南
能見度: 10公里
散云层高于3000英尺, 积雨云.
多云层高于7000英尺
附近有雷暴
短暂存在
从 16日的 00点(UTC)到 16日的 02点(UTC)
风速10节,风向多变,有时为20节阵风
能見度: 4.8公里
散云层高于1000英尺
多云层高于2500英尺, 积雨云.
雷暴, 小雨
从 16日的 0500点(UTC)
风速5节,风向西北
能見度: 10公里
多云层高于1500英尺
阴天层高于3000英尺
附近有阵雨
从 16日的 1100点(UTC)
风速3节,风向西
能見度: 8.0公里
阴天层高于900英尺
轻雾, 附近有阵雨
从 16日的 1500点(UTC)
风速6节,风向西转西北
能見度: 6.4公里
阴天层高于700英尺
轻雾, 附近有阵雨

TAF: KMOB 152325Z 1600/1624 22005KT P6SM VCTS SCT030CB BKN070 TEMPO 1600/1602 VRB10G20KT 3SM -TSRA SCT010 BKN025CB FM160500 32005KT P6SM VCSH BKN015 OVC030 FM161100 27003KT 5SM BR VCSH OVC009 FM161500 30006KT 4SM BR VCSH OVC007

超过4000个机场的气象观测和天气预报(METAR&TAF报告)。

可查询的气象台以黄色和红色小点在地图上表示。

将鼠标移到小点上方,可查看气象台名称。

然后点击查看天气观测和预报。

如需切换地图:点击带黑十字的绿色按钮放大地图;点击带横线的绿色按钮缩小地图;或者点击绿色箭头查看邻近地区的地图。


METAR-TAF: